createdAt,value
2019-03-23T00:05:24.345Z,13.50
2019-03-23T00:08:20.914Z,14.30
2019-03-23T00:15:02.721Z,13.37
2019-03-23T00:22:11.605Z,12.90
2019-03-23T00:25:22.596Z,12.20
2019-03-23T00:32:53.721Z,14.37
2019-03-23T00:36:16.067Z,14.83
2019-03-23T00:40:22.414Z,14.47
2019-03-23T00:53:40.051Z,15.50
2019-03-23T00:56:44.702Z,18.10
2019-03-23T00:59:32.466Z,17.07
2019-03-23T01:03:21.772Z,16.77
2019-03-23T01:07:11.245Z,19.13
2019-03-23T01:13:50.931Z,17.90
2019-03-23T01:18:19.687Z,16.10
2019-03-23T01:21:09.362Z,18.13
2019-03-23T01:24:39.292Z,17.20
2019-03-23T01:27:58.583Z,18.97
2019-03-23T01:31:06.012Z,18.97
2019-03-23T01:33:59.723Z,19.60
2019-03-23T01:40:19.574Z,18.10
2019-03-23T01:43:34.737Z,18.37
2019-03-23T01:46:53.029Z,19.20
2019-03-23T01:50:11.072Z,17.67
2019-03-23T01:53:00.941Z,18.43
2019-03-23T01:59:37.535Z,18.00
2019-03-23T02:02:38.265Z,19.90
2019-03-23T02:05:44.300Z,16.90
2019-03-23T02:23:06.801Z,16.47
2019-03-23T02:26:24.404Z,18.60
2019-03-23T02:34:13.186Z,18.00
2019-03-23T02:37:27.750Z,19.70
2019-03-23T02:40:21.436Z,19.00
2019-03-23T02:43:27.144Z,18.90
2019-03-23T02:46:37.732Z,18.40
2019-03-23T02:49:34.158Z,19.17
2019-03-23T02:56:26.511Z,18.23
2019-03-23T02:59:04.732Z,19.00
2019-03-23T03:02:25.079Z,18.03
2019-03-23T03:05:10.094Z,19.67
2019-03-23T03:12:16.389Z,17.60
2019-03-23T03:15:37.881Z,17.00
2019-03-23T03:18:27.089Z,20.00
2019-03-23T03:22:08.184Z,17.57
2019-03-23T03:28:50.614Z,18.40
2019-03-23T03:48:25.714Z,17.97
2019-03-23T03:51:48.184Z,17.23
2019-03-23T03:55:24.277Z,16.70
2019-03-23T03:59:11.818Z,17.10
2019-03-23T04:03:42.822Z,16.67
2019-03-23T04:06:16.163Z,17.13
2019-03-23T04:09:47.730Z,17.70
2019-03-23T04:13:16.048Z,17.00
2019-03-23T04:16:14.066Z,17.60
2019-03-23T04:19:44.530Z,17.20
2019-03-23T04:23:01.600Z,18.13
2019-03-23T04:26:22.830Z,16.20
2019-03-23T04:33:20.862Z,18.30
2019-03-23T04:41:02.725Z,18.90
2019-03-23T04:47:44.982Z,18.37
2019-03-23T04:54:43.568Z,20.10
2019-03-23T04:58:38.403Z,17.93
2019-03-23T05:02:36.371Z,17.43
2019-03-23T05:05:59.259Z,18.13
2019-03-23T05:09:18.487Z,18.30
2019-03-23T05:12:26.939Z,17.63
2019-03-23T05:16:24.598Z,17.20
2019-03-23T05:19:15.151Z,18.20
2019-03-23T05:23:09.004Z,17.70
2019-03-23T05:30:13.911Z,18.07
2019-03-23T05:33:46.990Z,21.67
2019-03-23T05:37:04.822Z,19.83
2019-03-23T05:40:34.500Z,20.87
2019-03-23T05:44:07.059Z,20.17
2019-03-23T05:47:41.101Z,19.40
2019-03-23T05:54:53.391Z,18.87
2019-03-23T05:58:39.222Z,19.90
2019-03-23T06:02:42.911Z,20.20
2019-03-23T06:05:40.911Z,19.63
2019-03-23T06:09:51.217Z,19.30
2019-03-23T06:12:47.415Z,21.23
2019-03-23T06:20:32.933Z,19.30
2019-03-23T06:31:05.277Z,20.00
2019-03-23T06:34:28.761Z,20.50
2019-03-23T06:37:32.434Z,20.80
2019-03-23T06:41:02.506Z,19.30
2019-03-23T06:48:10.593Z,20.17
2019-03-23T06:54:58.299Z,21.70
2019-03-23T06:59:24.745Z,20.53
2019-03-23T07:05:23.143Z,23.30
2019-03-23T07:13:03.705Z,21.90
2019-03-23T07:20:12.951Z,21.80
2019-03-23T07:23:48.938Z,21.87
2019-03-23T07:35:27.135Z,21.67
2019-03-23T07:39:13.489Z,21.57
2019-03-23T07:42:59.333Z,21.23
2019-03-23T07:50:16.261Z,21.60
2019-03-23T07:53:39.043Z,20.90
2019-03-23T08:01:04.797Z,23.77
2019-03-23T08:07:52.052Z,21.60
2019-03-23T08:19:33.355Z,21.30
2019-03-23T08:23:01.604Z,21.70
2019-03-23T08:30:09.412Z,22.80
2019-03-23T08:33:41.797Z,22.60
2019-03-23T08:37:14.788Z,22.40
2019-03-23T08:44:48.305Z,24.80
2019-03-23T08:51:44.281Z,24.23
2019-03-23T08:55:28.023Z,25.17
2019-03-23T08:59:16.215Z,24.90
2019-03-23T09:06:43.169Z,26.10
2019-03-23T09:10:27.163Z,26.83
2019-03-23T09:14:18.493Z,25.30
2019-03-23T09:17:56.674Z,26.40
2019-03-23T09:22:05.134Z,28.33
2019-03-23T09:25:50.082Z,29.67
2019-03-23T09:28:50.087Z,34.30
2019-03-23T10:06:50.470Z,40.63
2019-03-23T10:10:45.837Z,41.70
2019-03-23T10:17:51.865Z,40.77
2019-03-23T10:24:36.651Z,40.97
2019-03-23T10:28:33.738Z,39.20
2019-03-23T10:32:26.162Z,41.43
2019-03-23T10:35:23.313Z,42.50
2019-03-23T10:41:57.761Z,41.20
2019-03-23T10:45:18.219Z,42.10
2019-03-23T10:48:28.150Z,40.27
2019-03-23T10:51:55.305Z,40.30
2019-03-23T10:54:43.897Z,39.90
2019-03-23T10:58:11.722Z,47.43
2019-03-23T11:01:26.165Z,40.40
2019-03-23T11:12:05.955Z,40.07
2019-03-23T11:15:30.204Z,38.50
2019-03-23T11:18:59.515Z,41.57
2019-03-23T11:22:09.127Z,40.83
2019-03-23T11:37:07.219Z,42.83
2019-03-23T11:40:34.139Z,40.10
2019-03-23T11:44:28.819Z,40.03
2019-03-23T11:47:45.870Z,40.30
2019-03-23T11:51:25.504Z,41.50
2019-03-23T12:06:58.485Z,42.30
2019-03-23T12:11:08.262Z,41.17
2019-03-23T12:15:00.717Z,40.77
2019-03-23T12:22:37.177Z,41.83
2019-03-23T12:26:04.546Z,41.37
2019-03-23T12:33:32.468Z,43.57
2019-03-23T12:49:35.595Z,44.97
2019-03-23T12:53:04.036Z,42.57
2019-03-23T13:01:24.131Z,45.30
2019-03-23T13:04:37.334Z,42.73
2019-03-23T13:12:07.136Z,43.20
2019-03-23T13:15:21.824Z,42.07
2019-03-23T13:19:04.064Z,40.50
2019-03-23T13:26:30.751Z,40.57
2019-03-23T13:30:22.471Z,39.90
2019-03-23T13:36:56.796Z,42.90
2019-03-23T13:55:45.820Z,40.47
2019-03-23T13:59:32.161Z,39.70
2019-03-23T14:03:13.777Z,41.13
2019-03-23T14:10:53.458Z,35.17
2019-03-23T14:20:55.932Z,40.70
2019-03-23T14:27:49.583Z,39.77
2019-03-23T14:42:37.598Z,44.40
2019-03-23T14:49:46.975Z,38.40
2019-03-23T14:54:00.863Z,41.50
2019-03-23T14:57:25.178Z,39.27
2019-03-23T15:00:41.495Z,41.67
2019-03-23T15:04:17.027Z,38.10
2019-03-23T15:12:14.529Z,37.37
2019-03-23T15:15:52.008Z,36.07
2019-03-23T15:35:05.851Z,38.97
2019-03-23T15:37:36.095Z,38.30
2019-03-23T15:40:09.708Z,38.87
2019-03-23T15:42:40.152Z,40.03
2019-03-23T15:45:10.568Z,41.03
2019-03-23T15:47:40.678Z,38.30
2019-03-23T15:50:11.346Z,39.60
2019-03-23T15:52:41.427Z,39.43
2019-03-23T15:55:12.387Z,39.63
2019-03-23T15:57:42.631Z,40.10
2019-03-23T16:00:13.364Z,39.83
2019-03-23T16:02:49.501Z,41.90
2019-03-23T16:05:19.525Z,40.20
2019-03-23T16:07:49.577Z,40.07
2019-03-23T16:10:19.994Z,42.33
2019-03-23T16:12:50.330Z,42.40
2019-03-23T16:15:20.527Z,41.97
2019-03-23T16:17:51.189Z,42.20
2019-03-23T16:20:21.383Z,41.63
2019-03-23T16:22:51.642Z,44.43
2019-03-23T16:25:23.335Z,44.00
2019-03-23T16:27:53.485Z,46.20
2019-03-23T16:30:34.361Z,47.07
2019-03-23T16:33:04.595Z,44.90
2019-03-23T16:35:34.649Z,47.33
2019-03-23T16:38:10.103Z,46.40
2019-03-23T16:40:40.423Z,46.57
2019-03-23T16:43:10.700Z,46.53
2019-03-23T16:45:40.924Z,46.23
2019-03-23T16:48:11.333Z,47.67
2019-03-23T16:50:41.748Z,45.90
2019-03-23T16:53:12.151Z,45.53
2019-03-23T16:55:43.822Z,48.77
2019-03-23T16:58:16.592Z,49.00
2019-03-23T17:00:47.054Z,49.07
2019-03-23T17:03:17.326Z,46.80
2019-03-23T17:05:47.709Z,50.13
2019-03-23T17:08:19.284Z,49.40
2019-03-23T17:10:52.033Z,50.70
2019-03-23T17:13:22.986Z,49.93
2019-03-23T17:15:54.462Z,49.87
2019-03-23T17:18:36.903Z,50.70
2019-03-23T17:21:07.576Z,52.90
2019-03-23T17:23:39.234Z,52.60
2019-03-23T17:26:09.636Z,53.17
2019-03-23T17:28:40.068Z,53.47
2019-03-23T17:31:12.016Z,55.63
2019-03-23T17:33:42.622Z,54.43
2019-03-23T17:36:13.358Z,52.93
2019-03-23T17:38:44.119Z,51.60
2019-03-23T17:41:14.648Z,55.30
2019-03-23T17:43:46.488Z,53.20
2019-03-23T17:46:19.037Z,55.63
2019-03-23T17:48:50.368Z,56.83
2019-03-23T17:51:21.962Z,53.90
2019-03-23T17:53:58.459Z,55.20
2019-03-23T17:56:25.516Z,53.73
2019-03-23T17:58:57.010Z,56.27
2019-03-23T18:01:27.761Z,54.93
2019-03-23T18:03:58.817Z,54.23
2019-03-23T18:06:29.535Z,55.90
2019-03-23T18:09:00.227Z,56.80
2019-03-23T18:11:31.361Z,55.13
2019-03-23T18:14:04.539Z,58.53
2019-03-23T18:16:38.365Z,56.40
2019-03-23T18:19:09.540Z,57.30
2019-03-23T18:21:42.472Z,52.90
2019-03-23T18:24:13.488Z,58.57
2019-03-23T18:26:44.122Z,56.37
2019-03-23T18:29:15.375Z,54.93
2019-03-23T18:31:46.525Z,55.87
2019-03-23T18:34:18.668Z,56.00
2019-03-23T18:36:49.402Z,55.97
2019-03-23T18:39:19.987Z,56.57
2019-03-23T18:41:50.820Z,59.00
2019-03-23T18:44:21.749Z,57.57
2019-03-23T18:46:52.315Z,55.80
2019-03-23T18:49:22.902Z,59.00
2019-03-23T18:51:53.591Z,60.23
2019-03-23T18:54:24.408Z,55.30
2019-03-23T18:56:55.210Z,59.50
2019-03-23T18:59:27.294Z,57.20
2019-03-23T19:01:58.016Z,58.67
2019-03-23T19:04:28.479Z,56.17
2019-03-23T19:06:58.834Z,60.10
2019-03-23T19:09:29.888Z,58.07
2019-03-23T19:12:00.547Z,58.97
2019-03-23T19:14:31.101Z,58.20
2019-03-23T19:17:02.189Z,59.50
2019-03-23T19:19:32.960Z,60.40
2019-03-23T19:22:04.571Z,60.37
2019-03-23T19:24:35.184Z,60.40
2019-03-23T19:27:06.379Z,60.43
2019-03-23T19:29:37.441Z,60.50
2019-03-23T19:32:08.568Z,60.90
2019-03-23T19:34:38.925Z,61.53
2019-03-23T19:37:09.592Z,60.00
2019-03-23T19:39:40.372Z,61.83
2019-03-23T19:42:11.395Z,59.27
2019-03-23T19:44:44.418Z,58.77
2019-03-23T19:47:16.012Z,61.87
2019-03-23T19:49:48.035Z,64.43
2019-03-23T19:52:18.701Z,59.97
2019-03-23T19:54:49.205Z,57.73
2019-03-23T19:57:21.228Z,59.33
2019-03-23T19:59:51.732Z,61.23
2019-03-23T20:02:23.195Z,66.60
2019-03-23T20:04:54.226Z,61.50
2019-03-23T20:07:32.767Z,61.00
2019-03-23T20:09:57.269Z,60.80
2019-03-23T20:12:28.332Z,57.97
2019-03-23T20:14:58.902Z,63.70
2019-03-23T20:17:29.652Z,61.67
2019-03-23T20:20:00.462Z,61.20
2019-03-23T20:22:30.916Z,59.70
2019-03-23T20:25:01.575Z,58.00
2019-03-23T20:27:32.693Z,59.23
2019-03-23T20:30:07.540Z,60.43
2019-03-23T20:32:38.281Z,60.83
2019-03-23T20:35:09.467Z,62.77
2019-03-23T20:37:40.222Z,61.23
2019-03-23T20:40:13.372Z,58.90
2019-03-23T20:42:44.490Z,60.90
2019-03-23T20:45:18.856Z,62.83
2019-03-23T20:47:49.706Z,60.37
2019-03-23T20:50:20.715Z,58.67
2019-03-23T20:52:51.469Z,61.47
2019-03-23T20:55:29.878Z,60.27
2019-03-23T20:58:05.806Z,62.50
2019-03-23T21:00:36.463Z,58.80
2019-03-23T21:03:08.679Z,61.03
2019-03-23T21:05:43.768Z,57.43
2019-03-23T21:08:14.180Z,55.57
2019-03-23T21:10:45.183Z,55.73
2019-03-23T21:13:15.851Z,55.00
2019-03-23T21:15:47.211Z,55.40
2019-03-23T21:18:18.019Z,54.07
2019-03-23T21:20:48.482Z,55.57
2019-03-23T21:23:18.888Z,50.27
2019-03-23T21:25:51.301Z,50.57
2019-03-23T21:28:21.730Z,54.30
2019-03-23T21:30:52.119Z,51.23
2019-03-23T21:33:22.858Z,53.97
2019-03-23T21:35:53.799Z,49.80
2019-03-23T21:38:24.366Z,53.67
2019-03-23T21:40:55.063Z,50.60
2019-03-23T21:43:25.513Z,51.43
2019-03-23T21:45:56.021Z,49.67
2019-03-23T21:48:26.780Z,50.13
2019-03-23T21:50:57.173Z,50.93
2019-03-23T21:53:27.316Z,49.67
2019-03-23T21:55:58.717Z,46.80
2019-03-23T21:58:29.121Z,48.13
2019-03-23T22:00:59.447Z,45.70
2019-03-23T22:03:43.104Z,45.07
2019-03-23T22:06:18.010Z,45.53
2019-03-23T22:08:48.106Z,46.97
2019-03-23T22:11:24.417Z,47.97
2019-03-23T22:13:54.645Z,47.97
2019-03-23T22:16:24.939Z,45.97
2019-03-23T22:18:57.099Z,48.33
2019-03-23T22:21:27.993Z,45.93
2019-03-23T22:23:57.972Z,45.80
2019-03-23T22:26:29.259Z,43.10
2019-03-23T22:29:00.480Z,49.07
2019-03-23T22:31:30.556Z,47.60
2019-03-23T22:34:00.586Z,43.73
2019-03-23T22:36:30.625Z,41.53
2019-03-23T22:39:00.762Z,44.17
2019-03-23T22:41:30.717Z,42.50
2019-03-23T22:44:00.690Z,46.00
2019-03-23T22:46:30.996Z,41.63
2019-03-23T22:49:00.996Z,45.07
2019-03-23T22:51:31.260Z,42.80
2019-03-23T22:54:01.313Z,43.57
2019-03-23T22:56:31.432Z,44.13
2019-03-23T22:59:01.847Z,43.97
2019-03-23T23:01:31.969Z,41.70
2019-03-23T23:04:05.357Z,40.43
2019-03-23T23:06:35.786Z,42.30
2019-03-23T23:09:08.879Z,39.33
2019-03-23T23:11:38.831Z,41.30
2019-03-23T23:14:10.084Z,40.60
2019-03-23T23:16:40.142Z,39.73
2019-03-23T23:19:10.421Z,38.60
2019-03-23T23:21:40.556Z,40.87
2019-03-23T23:24:10.711Z,40.17
2019-03-23T23:26:41.043Z,38.80
2019-03-23T23:29:11.112Z,39.37
2019-03-23T23:31:41.239Z,37.50
2019-03-23T23:34:12.812Z,36.40
2019-03-23T23:36:42.784Z,37.13
2019-03-23T23:39:12.973Z,38.23
2019-03-23T23:41:43.396Z,36.20
2019-03-23T23:44:13.642Z,39.10
2019-03-23T23:46:43.583Z,36.80
2019-03-23T23:49:13.997Z,37.50
2019-03-23T23:51:50.028Z,35.57
2019-03-23T23:54:15.700Z,34.77
2019-03-23T23:56:46.021Z,35.80
2019-03-23T23:59:16.074Z,38.30
